Time;durP1;ratioP1;P1;durP2;ratioP2;P2;SDS_P1;SDS_P2;PMS_P1;PMS_P2;Temp;Humidity;BMP_temperature;BMP_pressure;BME280_temperature;BME280_humidity;BME280_pressure;Samples;Min_cycle;Max_cycle;Signal;HPM_P1;HPM_P2
2023/07/14 00:09:00;;;;;;;0.20;0.15;;;;;;;;;;5041734;28;20048;-87
2023/07/14 00:11:32;;;;;;;0.20;0.10;;;;;;;;;;5030411;28;20048;-87
2023/07/14 00:14:00;;;;;;;0.30;0.30;;;;;;;;;;5001046;23;20050;-80
2023/07/14 00:16:28;;;;;;;0.20;0.10;;;;;;;;;;4965369;28;20071;-80
2023/07/14 00:18:54;;;;;;;0.20;0.20;;;;;;;;;;4963796;28;20038;-80
2023/07/14 00:21:22;;;;;;;0.20;0.20;;;;;;;;;;4947844;28;20050;-80
2023/07/14 00:23:49;;;;;;;0.38;0.32;;;;;;;;;;4959139;28;20042;-81
2023/07/14 00:26:16;;;;;;;0.20;0.20;;;;;;;;;;4960988;28;20058;-81
2023/07/14 00:28:43;;;;;;;0.30;0.20;;;;;;;;;;4958717;28;22022;-80
2023/07/14 00:31:14;;;;;;;0.20;0.10;;;;;;;;;;4941821;28;20666;-80
2023/07/14 00:33:40;;;;;;;0.20;0.13;;;;;;;;;;4959926;28;20039;-81
2023/07/14 00:36:06;;;;;;;0.20;0.20;;;;;;;;;;4955424;28;20447;-81
2023/07/14 00:38:34;;;;;;;0.20;0.10;;;;;;;;;;4957670;28;20512;-80
2023/07/14 00:41:01;;;;;;;1.08;0.75;;;;;;;;;;4959039;28;20046;-82
2023/07/14 00:43:29;;;;;;;0.20;0.10;;;;;;;;;;4942567;28;20496;-81
2023/07/14 00:45:56;;;;;;;0.20;0.20;;;;;;;;;;4949104;28;20039;-81
2023/07/14 00:48:25;;;;;;;0.20;0.20;;;;;;;;;;4949652;28;20039;-80
2023/07/14 00:51:01;;;;;;;0.57;0.55;;;;;;;;;;4979398;28;20053;-81
2023/07/14 00:53:32;;;;;;;0.20;0.20;;;;;;;;;;4960535;28;20065;-80
2023/07/14 00:56:11;;;;;;;0.28;0.28;;;;;;;;;;4964821;28;20045;-81
2023/07/14 00:58:47;;;;;;;0.20;0.10;;;;;;;;;;4966838;28;20051;-80
2023/07/14 01:01:13;;;;;;;0.40;0.30;;;;;;;;;;4961842;28;20062;-81
2023/07/14 01:03:40;;;;;;;0.70;0.40;;;;;;;;;;4960649;28;20050;-81
2023/07/14 01:06:22;;;;;;;0.35;0.25;;;;;;;;;;4962681;28;20042;-81
2023/07/14 01:08:51;;;;;;;0.20;0.10;;;;;;;;;;4960976;28;20049;-81
2023/07/14 01:11:19;;;;;;;0.40;0.40;;;;;;;;;;4959321;28;21065;-81
2023/07/14 01:13:45;;;;;;;0.40;0.35;;;;;;;;;;4961329;28;20570;-83
2023/07/14 01:16:14;;;;;;;0.20;0.10;;;;;;;;;;4945553;28;20038;-82
2023/07/14 01:18:41;;;;;;;0.25;0.15;;;;;;;;;;4983201;28;20041;-83
2023/07/14 01:21:08;;;;;;;0.32;0.30;;;;;;;;;;4951441;28;20073;-80
2023/07/14 01:23:43;;;;;;;0.20;0.10;;;;;;;;;;4954025;28;20046;-81
2023/07/14 01:26:15;;;;;;;0.20;0.10;;;;;;;;;;4964584;28;20135;-80
2023/07/14 01:28:41;;;;;;;0.20;0.15;;;;;;;;;;4964950;28;20775;-82
2023/07/14 01:31:11;;;;;;;1.05;0.40;;;;;;;;;;4940954;28;20034;-81
2023/07/14 01:33:37;;;;;;;0.20;0.20;;;;;;;;;;4962001;28;20098;-81
2023/07/14 01:36:04;;;;;;;0.20;0.20;;;;;;;;;;4964634;28;22698;-80
2023/07/14 01:38:30;;;;;;;0.20;0.20;;;;;;;;;;4964751;28;20073;-80
2023/07/14 01:40:56;;;;;;;0.20;0.10;;;;;;;;;;4981388;28;20046;-82
2023/07/14 01:43:22;;;;;;;0.20;0.10;;;;;;;;;;4963903;28;20130;-81
2023/07/14 01:46:15;;;;;;;0.30;0.20;;;;;;;;;;4961714;28;20050;-80
2023/07/14 01:48:59;;;;;;;0.30;0.30;;;;;;;;;;4960565;28;20054;-82
2023/07/14 01:51:35;;;;;;;0.20;0.10;;;;;;;;;;4961305;28;20158;-81
2023/07/14 01:54:05;;;;;;;0.25;0.25;;;;;;;;;;4961791;28;20053;-81
2023/07/14 01:56:32;;;;;;;0.20;0.20;;;;;;;;;;4964645;28;20038;-81
2023/07/14 01:59:11;;;;;;;0.30;0.30;;;;;;;;;;4945612;28;20070;-81
2023/07/14 02:01:38;;;;;;;0.40;0.20;;;;;;;;;;4962688;28;20042;-82
2023/07/14 02:04:06;;;;;;;0.20;0.10;;;;;;;;;;4963821;28;20089;-80
2023/07/14 02:06:32;;;;;;;0.30;0.30;;;;;;;;;;4957949;28;21780;-81
2023/07/14 02:08:59;;;;;;;0.20;0.20;;;;;;;;;;4964227;28;20046;-81
2023/07/14 02:11:26;;;;;;;0.40;0.30;;;;;;;;;;4959708;28;20125;-81
2023/07/14 02:13:54;;;;;;;0.20;0.10;;;;;;;;;;4961971;28;20053;-81
2023/07/14 02:16:21;;;;;;;0.20;0.20;;;;;;;;;;4958035;28;20046;-82
2023/07/14 02:18:47;;;;;;;0.40;0.10;;;;;;;;;;4938962;28;20073;-81
2023/07/14 02:21:15;;;;;;;0.20;0.10;;;;;;;;;;4961686;28;20058;-82
2023/07/14 02:23:41;;;;;;;0.20;0.20;;;;;;;;;;4964825;28;20042;-81
2023/07/14 02:26:26;;;;;;;0.20;0.10;;;;;;;;;;4946456;28;20050;-83
2023/07/14 02:28:52;;;;;;;0.20;0.10;;;;;;;;;;4964493;28;20109;-81
2023/07/14 02:31:39;;;;;;;0.30;0.20;;;;;;;;;;4979485;28;20076;-80
2023/07/14 02:34:05;;;;;;;0.20;0.10;;;;;;;;;;4950671;28;20103;-80
2023/07/14 02:36:37;;;;;;;0.20;0.10;;;;;;;;;;4952019;28;20541;-80
2023/07/14 02:39:04;;;;;;;0.20;0.10;;;;;;;;;;4967220;28;20042;-81
2023/07/14 02:41:33;;;;;;;0.20;0.10;;;;;;;;;;4979015;28;20053;-80
2023/07/14 02:44:04;;;;;;;0.40;0.20;;;;;;;;;;4955308;28;20054;-81
2023/07/14 02:46:48;;;;;;;0.30;0.30;;;;;;;;;;4935941;28;20042;-81
2023/07/14 02:49:15;;;;;;;0.20;0.17;;;;;;;;;;4963154;28;20046;-80
2023/07/14 02:51:41;;;;;;;1.95;0.20;;;;;;;;;;4964600;28;20050;-80
2023/07/14 02:54:07;;;;;;;0.20;0.00;;;;;;;;;;4961659;28;20038;-81
2023/07/14 02:56:34;;;;;;;0.30;0.20;;;;;;;;;;4963859;28;20261;-81
2023/07/14 02:59:00;;;;;;;0.20;0.13;;;;;;;;;;4961640;28;20638;-81
2023/07/14 03:01:28;;;;;;;0.20;0.10;;;;;;;;;;4962143;28;20078;-80
2023/07/14 03:03:55;;;;;;;0.20;0.10;;;;;;;;;;4962051;28;20239;-81
2023/07/14 03:06:24;;;;;;;0.20;0.10;;;;;;;;;;4949987;28;20830;-81
2023/07/14 03:08:50;;;;;;;0.35;0.20;;;;;;;;;;4960914;28;20053;-80
2023/07/14 03:11:16;;;;;;;0.20;0.10;;;;;;;;;;4962435;28;20034;-81
2023/07/14 03:13:43;;;;;;;0.20;0.10;;;;;;;;;;4963353;28;20069;-80
2023/07/14 03:16:09;;;;;;;0.28;0.15;;;;;;;;;;4963344;28;20053;-80
2023/07/14 03:18:35;;;;;;;0.30;0.20;;;;;;;;;;4946551;28;20052;-80
2023/07/14 03:21:03;;;;;;;0.30;0.20;;;;;;;;;;4970640;28;20587;-80
2023/07/14 03:23:29;;;;;;;0.20;0.17;;;;;;;;;;4955727;28;20072;-81
2023/07/14 03:26:01;;;;;;;0.20;0.10;;;;;;;;;;4961204;28;20476;-81
2023/07/14 03:28:27;;;;;;;0.20;0.10;;;;;;;;;;4962466;28;20124;-80
2023/07/14 03:30:53;;;;;;;0.25;0.22;;;;;;;;;;4967438;28;20037;-80
2023/07/14 03:33:20;;;;;;;0.20;0.10;;;;;;;;;;4969182;28;20042;-80
2023/07/14 03:35:47;;;;;;;0.20;0.10;;;;;;;;;;4963027;28;20052;-81
2023/07/14 03:38:13;;;;;;;0.20;0.10;;;;;;;;;;4969231;28;20050;-80
2023/07/14 03:40:39;;;;;;;0.20;0.10;;;;;;;;;;4964500;28;20049;-81
2023/07/14 03:43:05;;;;;;;0.20;0.03;;;;;;;;;;4962758;28;20102;-81
2023/07/14 03:45:36;;;;;;;0.20;0.10;;;;;;;;;;4985354;28;20057;-80
2023/07/14 03:48:03;;;;;;;0.20;0.10;;;;;;;;;;4956010;28;20446;-81
2023/07/14 03:50:30;;;;;;;0.28;0.20;;;;;;;;;;4967205;28;20630;-81
2023/07/14 03:52:56;;;;;;;0.50;0.50;;;;;;;;;;4961072;28;20091;-81
2023/07/14 03:55:22;;;;;;;0.20;0.20;;;;;;;;;;4943048;28;20038;-81
2023/07/14 03:57:48;;;;;;;0.73;0.70;;;;;;;;;;4953270;28;20044;-81
2023/07/14 04:00:17;;;;;;;0.20;0.10;;;;;;;;;;4952623;28;20640;-82
2023/07/14 04:02:43;;;;;;;0.40;0.40;;;;;;;;;;4930428;28;20049;-80
2023/07/14 04:05:10;;;;;;;0.20;0.10;;;;;;;;;;4950318;28;20089;-81
2023/07/14 04:07:37;;;;;;;0.20;0.10;;;;;;;;;;4950171;28;20412;-81
2023/07/14 04:10:04;;;;;;;0.20;0.15;;;;;;;;;;4965130;28;20042;-80
2023/07/14 04:12:31;;;;;;;0.20;0.10;;;;;;;;;;4964803;28;20073;-81
2023/07/14 04:14:57;;;;;;;0.20;0.15;;;;;;;;;;4976027;28;20050;-81
2023/07/14 04:17:23;;;;;;;0.20;0.10;;;;;;;;;;4962511;28;20038;-82
2023/07/14 04:19:50;;;;;;;0.20;0.15;;;;;;;;;;4961225;28;20080;-81
2023/07/14 04:22:16;;;;;;;0.20;0.10;;;;;;;;;;4951914;28;20128;-81
2023/07/14 04:24:42;;;;;;;0.40;0.30;;;;;;;;;;4975824;28;20066;-81
2023/07/14 04:27:08;;;;;;;0.85;0.85;;;;;;;;;;4954296;28;20665;-80
2023/07/14 04:29:34;;;;;;;0.40;0.38;;;;;;;;;;4954325;28;20042;-81
2023/07/14 04:32:01;;;;;;;0.20;0.10;;;;;;;;;;4955754;28;20038;-82
2023/07/14 04:34:28;;;;;;;0.20;0.03;;;;;;;;;;4951954;28;20175;-81
2023/07/14 04:36:54;;;;;;;0.20;0.10;;;;;;;;;;4949375;28;20049;-81
2023/07/14 04:39:20;;;;;;;0.20;0.13;;;;;;;;;;4952380;28;20038;-81
2023/07/14 04:41:46;;;;;;;0.20;0.10;;;;;;;;;;4968231;28;20638;-81
2023/07/14 04:44:15;;;;;;;0.20;0.20;;;;;;;;;;4953118;28;20065;-80
2023/07/14 04:46:42;;;;;;;0.20;0.20;;;;;;;;;;4944345;28;20054;-80
2023/07/14 04:49:09;;;;;;;0.28;0.20;;;;;;;;;;4951588;28;20035;-81
2023/07/14 04:51:35;;;;;;;0.20;0.10;;;;;;;;;;4931412;28;20073;-81
2023/07/14 04:54:02;;;;;;;0.22;0.10;;;;;;;;;;4953923;28;20085;-81
2023/07/14 04:56:29;;;;;;;0.20;0.10;;;;;;;;;;4938804;28;20073;-81
2023/07/14 04:58:55;;;;;;;0.30;0.20;;;;;;;;;;4941464;28;20124;-81
2023/07/14 05:01:21;;;;;;;0.20;0.10;;;;;;;;;;4954104;28;20069;-82
2023/07/14 05:03:47;;;;;;;3.22;1.35;;;;;;;;;;4977573;28;20073;-81
2023/07/14 05:06:14;;;;;;;0.40;0.30;;;;;;;;;;4960069;28;20054;-81
2023/07/14 05:08:40;;;;;;;0.20;0.03;;;;;;;;;;4964383;28;20772;-82
2023/07/14 05:11:06;;;;;;;0.20;0.10;;;;;;;;;;4963946;28;20034;-81
2023/07/14 05:13:32;;;;;;;0.20;0.10;;;;;;;;;;4970442;28;20055;-80
2023/07/14 05:15:59;;;;;;;0.20;0.10;;;;;;;;;;4967511;28;20148;-81
2023/07/14 05:18:25;;;;;;;0.30;0.20;;;;;;;;;;4949541;28;20134;-81
2023/07/14 05:20:52;;;;;;;0.30;0.22;;;;;;;;;;4976862;28;20149;-80
2023/07/14 05:23:18;;;;;;;0.20;0.00;;;;;;;;;;4965762;28;20084;-81
2023/07/14 05:25:45;;;;;;;0.20;0.20;;;;;;;;;;4966832;28;20048;-82
2023/07/14 05:28:11;;;;;;;0.30;0.30;;;;;;;;;;4961740;28;20184;-83
2023/07/14 05:30:37;;;;;;;0.20;0.10;;;;;;;;;;4966945;28;20041;-79
2023/07/14 05:33:04;;;;;;;0.20;0.10;;;;;;;;;;4963503;28;20065;-81
2023/07/14 05:35:30;;;;;;;0.20;0.00;;;;;;;;;;4962193;28;20061;-80
2023/07/14 05:37:57;;;;;;;0.22;0.15;;;;;;;;;;4962351;28;20046;-80
2023/07/14 05:40:23;;;;;;;0.52;0.32;;;;;;;;;;4958224;28;20503;-79
2023/07/14 05:42:49;;;;;;;0.20;0.10;;;;;;;;;;4959164;28;20073;-81
2023/07/14 05:45:15;;;;;;;0.20;0.10;;;;;;;;;;4965450;28;20038;-81
2023/07/14 05:47:44;;;;;;;0.75;0.75;;;;;;;;;;4965165;28;20043;-80
2023/07/14 05:50:10;;;;;;;0.30;0.22;;;;;;;;;;4958285;28;20664;-83
2023/07/14 05:52:36;;;;;;;0.20;0.20;;;;;;;;;;4944129;28;20042;-82
2023/07/14 05:55:05;;;;;;;0.20;0.10;;;;;;;;;;4956705;28;20034;-82
2023/07/14 05:57:32;;;;;;;0.20;0.20;;;;;;;;;;4974872;28;20425;-82
2023/07/14 05:59:58;;;;;;;0.30;0.22;;;;;;;;;;4960463;28;20042;-83
2023/07/14 06:02:25;;;;;;;0.20;0.10;;;;;;;;;;4958647;28;20156;-81
2023/07/14 06:04:51;;;;;;;0.20;0.10;;;;;;;;;;4960373;28;20046;-81
2023/07/14 06:07:17;;;;;;;0.22;0.20;;;;;;;;;;4964744;28;20045;-82
2023/07/14 06:09:43;;;;;;;0.25;0.20;;;;;;;;;;4967794;28;20053;-82
2023/07/14 06:12:11;;;;;;;0.20;0.10;;;;;;;;;;4968593;28;20085;-82
2023/07/14 06:15:03;;;;;;;0.73;0.55;;;;;;;;;;5061060;22;20056;-88
2023/07/14 06:18:00;;;;;;;0.20;0.13;;;;;;;;;;5001325;28;20060;-87
2023/07/14 06:20:41;;;;;;;0.25;0.15;;;;;;;;;;5022695;28;20041;-86
2023/07/14 06:23:07;;;;;;;0.20;0.10;;;;;;;;;;5004724;28;20129;-85
2023/07/14 06:25:54;;;;;;;0.20;0.10;;;;;;;;;;5008135;28;20044;-87
2023/07/14 06:28:34;;;;;;;0.20;0.17;;;;;;;;;;5026719;28;20129;-87
2023/07/14 06:31:04;;;;;;;0.20;0.10;;;;;;;;;;5009020;28;20046;-86
2023/07/14 06:33:49;;;;;;;0.43;0.28;;;;;;;;;;4996347;28;20057;-88
2023/07/14 06:36:15;;;;;;;0.40;0.32;;;;;;;;;;5002810;28;20498;-86
2023/07/14 06:38:41;;;;;;;0.20;0.10;;;;;;;;;;5009733;28;20060;-87
2023/07/14 06:41:07;;;;;;;0.20;0.10;;;;;;;;;;5007814;28;20041;-87
2023/07/14 06:44:03;;;;;;;0.20;0.10;;;;;;;;;;5007742;28;20049;-87
2023/07/14 06:46:56;;;;;;;0.20;0.13;;;;;;;;;;5000057;28;20049;-90
2023/07/14 06:49:25;;;;;;;0.20;0.10;;;;;;;;;;5018776;28;20075;-88
2023/07/14 06:51:54;;;;;;;0.20;0.10;;;;;;;;;;5025285;28;20136;-87
2023/07/14 06:54:20;;;;;;;0.20;0.10;;;;;;;;;;5008503;28;20593;-85
2023/07/14 06:56:46;;;;;;;0.20;0.20;;;;;;;;;;5019856;28;20046;-85
2023/07/14 06:59:12;;;;;;;0.20;0.15;;;;;;;;;;5004315;28;20265;-86
2023/07/14 07:01:39;;;;;;;0.20;0.08;;;;;;;;;;5004070;28;20135;-85
2023/07/14 07:04:08;;;;;;;0.20;0.10;;;;;;;;;;5006949;28;20478;-87
2023/07/14 07:06:34;;;;;;;0.45;0.20;;;;;;;;;;5023625;28;20048;-87
2023/07/14 07:09:04;;;;;;;0.50;0.28;;;;;;;;;;5007653;28;20045;-86
2023/07/14 07:11:31;;;;;;;0.20;0.10;;;;;;;;;;5008778;28;20099;-86
2023/07/14 07:13:57;;;;;;;0.20;0.10;;;;;;;;;;5007260;28;20112;-88
2023/07/14 07:16:23;;;;;;;0.20;0.10;;;;;;;;;;5024056;28;20046;-85
2023/07/14 07:18:49;;;;;;;0.20;0.10;;;;;;;;;;5013493;28;20037;-83
2023/07/14 07:21:15;;;;;;;0.20;0.10;;;;;;;;;;5022706;28;20041;-86
2023/07/14 07:23:41;;;;;;;0.30;0.22;;;;;;;;;;5007119;28;20060;-88
2023/07/14 07:26:07;;;;;;;0.20;0.10;;;;;;;;;;5007629;28;20233;-87
2023/07/14 07:28:34;;;;;;;0.20;0.10;;;;;;;;;;5003564;28;20069;-87
2023/07/14 07:31:08;;;;;;;0.82;0.82;;;;;;;;;;5012360;28;20354;-86
2023/07/14 07:33:35;;;;;;;0.22;0.20;;;;;;;;;;5011652;28;20044;-88
2023/07/14 07:36:14;;;;;;;0.22;0.22;;;;;;;;;;5021176;28;20506;-86
2023/07/14 07:38:40;;;;;;;0.22;0.13;;;;;;;;;;5007708;28;20387;-85
2023/07/14 07:41:06;;;;;;;0.20;0.00;;;;;;;;;;5021186;28;20067;-84
2023/07/14 07:43:33;;;;;;;0.20;0.10;;;;;;;;;;5007702;28;20581;-85
2023/07/14 07:45:59;;;;;;;0.45;0.30;;;;;;;;;;5003383;28;20514;-85
2023/07/14 07:48:25;;;;;;;0.35;0.20;;;;;;;;;;5025140;28;20065;-84
2023/07/14 07:50:53;;;;;;;0.20;0.10;;;;;;;;;;5004452;28;20057;-86
2023/07/14 07:53:20;;;;;;;0.20;0.10;;;;;;;;;;5004562;28;20537;-85
2023/07/14 07:55:52;;;;;;;0.45;0.17;;;;;;;;;;5009382;28;20067;-84
2023/07/14 07:58:18;;;;;;;0.20;0.10;;;;;;;;;;4996150;28;20041;-86
2023/07/14 08:00:45;;;;;;;0.20;0.10;;;;;;;;;;5002718;28;20045;-86
2023/07/14 08:03:11;;;;;;;0.20;0.10;;;;;;;;;;5007940;28;20135;-87
2023/07/14 08:05:38;;;;;;;0.20;0.20;;;;;;;;;;5012954;28;20518;-84
2023/07/14 08:08:04;;;;;;;0.30;0.30;;;;;;;;;;4997836;28;20037;-86
2023/07/14 08:10:31;;;;;;;0.20;0.05;;;;;;;;;;5020735;28;20037;-86
2023/07/14 08:12:57;;;;;;;0.20;0.10;;;;;;;;;;4998273;28;20064;-85
2023/07/14 08:15:23;;;;;;;0.20;0.10;;;;;;;;;;5000669;28;20144;-84
2023/07/14 08:17:55;;;;;;;0.20;0.20;;;;;;;;;;4997305;28;20433;-85
2023/07/14 08:20:22;;;;;;;0.20;0.20;;;;;;;;;;5001595;28;20037;-85
2023/07/14 08:22:48;;;;;;;0.20;0.10;;;;;;;;;;5002138;28;20069;-89
2023/07/14 08:25:14;;;;;;;0.57;0.57;;;;;;;;;;5019157;28;20069;-84
2023/07/14 08:27:40;;;;;;;0.52;0.45;;;;;;;;;;5012530;28;20064;-85
2023/07/14 08:30:08;;;;;;;0.30;0.10;;;;;;;;;;5019389;28;20037;-84
2023/07/14 08:32:34;;;;;;;0.43;0.20;;;;;;;;;;5019287;28;20068;-85
2023/07/14 08:35:01;;;;;;;0.20;0.20;;;;;;;;;;5006295;28;20045;-85
2023/07/14 08:37:27;;;;;;;0.20;0.15;;;;;;;;;;5014367;28;20103;-85
2023/07/14 08:39:53;;;;;;;0.20;0.10;;;;;;;;;;5013457;28;20061;-85
2023/07/14 08:42:32;;;;;;;0.20;0.20;;;;;;;;;;5013239;28;20037;-85
2023/07/14 08:45:17;;;;;;;0.32;0.32;;;;;;;;;;5022625;28;20043;-85
2023/07/14 08:48:04;;;;;;;0.20;0.10;;;;;;;;;;5012564;28;20517;-86
2023/07/14 08:50:31;;;;;;;0.40;0.10;;;;;;;;;;5029620;28;20328;-84
2023/07/14 08:53:03;;;;;;;0.20;0.10;;;;;;;;;;5023997;28;20052;-85
2023/07/14 08:55:30;;;;;;;0.20;0.10;;;;;;;;;;5009770;28;20048;-83
2023/07/14 08:58:00;;;;;;;0.20;0.10;;;;;;;;;;5023467;28;20122;-86
2023/07/14 09:00:33;;;;;;;0.20;0.10;;;;;;;;;;5009542;28;20136;-84
2023/07/14 09:03:15;;;;;;;0.20;0.10;;;;;;;;;;5007417;28;20038;-86
2023/07/14 09:06:03;;;;;;;0.20;0.10;;;;;;;;;;5017283;28;20049;-84
2023/07/14 09:08:31;;;;;;;0.20;0.10;;;;;;;;;;5006715;28;20089;-84
2023/07/14 09:11:09;;;;;;;0.20;0.10;;;;;;;;;;5006786;28;21570;-87
2023/07/14 09:13:35;;;;;;;0.40;0.38;;;;;;;;;;5002223;28;20033;-83
2023/07/14 09:16:02;;;;;;;0.20;0.10;;;;;;;;;;5003101;28;20063;-86
2023/07/14 09:18:38;;;;;;;0.40;0.38;;;;;;;;;;5003201;28;20044;-86
2023/07/14 09:21:13;;;;;;;0.28;0.28;;;;;;;;;;5004341;28;20132;-84
2023/07/14 09:23:49;;;;;;;0.20;0.10;;;;;;;;;;5022531;28;20033;-83
2023/07/14 09:26:19;;;;;;;0.85;0.43;;;;;;;;;;5005396;28;20099;-83
2023/07/14 09:28:47;;;;;;;0.47;0.20;;;;;;;;;;5004960;28;20048;-81
2023/07/14 09:31:25;;;;;;;0.20;0.10;;;;;;;;;;4999915;28;20229;-86
2023/07/14 09:33:54;;;;;;;0.20;0.10;;;;;;;;;;5011265;28;20053;-85
2023/07/14 09:36:24;;;;;;;0.43;0.43;;;;;;;;;;4997657;28;20165;-84
2023/07/14 09:39:03;;;;;;;0.20;0.10;;;;;;;;;;4997350;28;20047;-83
2023/07/14 09:41:29;;;;;;;0.45;0.30;;;;;;;;;;5021719;28;20045;-86
2023/07/14 09:43:59;;;;;;;0.20;0.13;;;;;;;;;;5002498;28;20056;-85
2023/07/14 09:46:26;;;;;;;0.20;0.20;;;;;;;;;;4996846;28;20036;-82
2023/07/14 09:48:53;;;;;;;0.20;0.10;;;;;;;;;;5022481;28;20431;-84
2023/07/14 09:51:25;;;;;;;0.20;0.10;;;;;;;;;;5017365;28;20171;-85
2023/07/14 09:54:02;;;;;;;0.20;0.20;;;;;;;;;;4999674;28;20477;-84
2023/07/14 09:56:33;;;;;;;0.20;0.10;;;;;;;;;;5000629;28;20045;-88
2023/07/14 09:59:01;;;;;;;0.20;0.10;;;;;;;;;;5019713;28;20046;-83
2023/07/14 10:01:31;;;;;;;0.20;0.10;;;;;;;;;;5018871;28;20041;-85
2023/07/14 10:03:59;;;;;;;0.20;0.10;;;;;;;;;;5020347;28;20502;-85
2023/07/14 10:06:30;;;;;;;0.65;0.65;;;;;;;;;;5008626;28;20037;-86
2023/07/14 10:09:10;;;;;;;0.20;0.10;;;;;;;;;;5020792;28;20056;-86
2023/07/14 10:11:45;;;;;;;0.20;0.10;;;;;;;;;;5020046;28;20034;-84
2023/07/14 10:14:26;;;;;;;0.20;0.10;;;;;;;;;;5019625;28;20046;-83
2023/07/14 10:16:59;;;;;;;0.22;0.22;;;;;;;;;;5005225;28;20048;-85
2023/07/14 10:19:37;;;;;;;0.20;0.10;;;;;;;;;;5021580;28;20034;-83
2023/07/14 10:22:05;;;;;;;0.50;0.47;;;;;;;;;;5023161;28;20429;-85
2023/07/14 10:24:31;;;;;;;0.20;0.10;;;;;;;;;;5017659;28;20401;-84
2023/07/14 10:27:08;;;;;;;0.20;0.15;;;;;;;;;;5006879;28;20037;-84
2023/07/14 10:29:47;;;;;;;0.20;0.13;;;;;;;;;;5005125;28;20045;-82
2023/07/14 10:32:24;;;;;;;0.95;0.68;;;;;;;;;;5022113;28;20090;-83
2023/07/14 10:35:02;;;;;;;0.40;0.30;;;;;;;;;;5001702;28;20040;-85
2023/07/14 10:37:32;;;;;;;0.40;0.32;;;;;;;;;;5019171;28;20139;-85
2023/07/14 10:40:00;;;;;;;0.20;0.10;;;;;;;;;;5026262;28;20114;-84
2023/07/14 10:42:29;;;;;;;0.20;0.10;;;;;;;;;;5007954;28;20037;-84
2023/07/14 10:44:57;;;;;;;0.38;0.38;;;;;;;;;;5016755;28;20405;-83
2023/07/14 10:47:27;;;;;;;0.20;0.10;;;;;;;;;;5023211;28;20038;-86
2023/07/14 10:50:12;;;;;;;0.20;0.20;;;;;;;;;;5038834;28;20124;-84
2023/07/14 10:52:40;;;;;;;0.20;0.10;;;;;;;;;;5005805;28;20049;-86
2023/07/14 10:55:17;;;;;;;0.20;0.15;;;;;;;;;;5011178;28;20049;-85
2023/07/14 10:57:49;;;;;;;0.20;0.20;;;;;;;;;;5006291;28;20052;-85
2023/07/14 11:00:25;;;;;;;0.20;0.10;;;;;;;;;;5000455;28;20041;-86
2023/07/14 11:03:13;;;;;;;0.20;0.15;;;;;;;;;;5007214;28;20077;-84
2023/07/14 11:05:39;;;;;;;0.20;0.10;;;;;;;;;;5014463;28;20881;-86
2023/07/14 11:08:12;;;;;;;0.43;0.43;;;;;;;;;;5002238;28;20049;-84
2023/07/14 11:10:39;;;;;;;0.20;0.10;;;;;;;;;;5017322;28;20111;-82
2023/07/14 11:13:14;;;;;;;0.40;0.15;;;;;;;;;;5020850;28;20041;-81
2023/07/14 11:15:51;;;;;;;0.20;0.10;;;;;;;;;;5001865;28;20029;-85
2023/07/14 11:18:36;;;;;;;0.50;0.50;;;;;;;;;;5015972;28;20053;-85
2023/07/14 11:21:14;;;;;;;0.52;0.45;;;;;;;;;;5020203;28;20056;-86
2023/07/14 11:23:45;;;;;;;0.20;0.10;;;;;;;;;;5016937;28;20528;-83
2023/07/14 11:26:23;;;;;;;0.20;0.10;;;;;;;;;;5014769;28;20197;-82
2023/07/14 11:28:53;;;;;;;0.25;0.20;;;;;;;;;;4999639;28;20042;-85
2023/07/14 11:31:22;;;;;;;0.20;0.20;;;;;;;;;;5013945;28;20045;-85
2023/07/14 11:34:02;;;;;;;1.15;0.82;;;;;;;;;;5018838;28;20072;-82
2023/07/14 11:36:35;;;;;;;0.30;0.30;;;;;;;;;;5013507;28;20129;-84
2023/07/14 11:39:22;;;;;;;0.20;0.10;;;;;;;;;;5015642;28;20037;-89
2023/07/14 11:41:49;;;;;;;0.20;0.10;;;;;;;;;;5004146;28;20084;-82
2023/07/14 11:44:19;;;;;;;0.20;0.10;;;;;;;;;;5003473;28;20044;-85
2023/07/14 11:46:45;;;;;;;0.20;0.13;;;;;;;;;;4999868;28;20033;-83
2023/07/14 11:49:24;;;;;;;0.20;0.20;;;;;;;;;;5015992;28;20865;-82
2023/07/14 11:51:51;;;;;;;0.20;0.10;;;;;;;;;;5008565;28;20046;-85
2023/07/14 11:54:22;;;;;;;0.20;0.10;;;;;;;;;;5000524;28;20037;-83
2023/07/14 11:57:01;;;;;;;0.20;0.10;;;;;;;;;;4998632;28;20045;-85
2023/07/14 11:59:32;;;;;;;0.20;0.10;;;;;;;;;;5003249;28;20406;-82
2023/07/14 12:02:16;;;;;;;0.20;0.10;;;;;;;;;;5000853;28;20056;-81
2023/07/14 12:05:01;;;;;;;0.43;0.43;;;;;;;;;;5004133;28;20061;-83
2023/07/14 12:07:28;;;;;;;0.20;0.10;;;;;;;;;;5020815;28;20052;-83
2023/07/14 12:10:08;;;;;;;0.95;0.25;;;;;;;;;;5022850;28;20041;-83
2023/07/14 12:12:57;;;;;;;0.20;0.10;;;;;;;;;;5008334;28;20033;-82
2023/07/14 12:15:42;;;;;;;0.20;0.10;;;;;;;;;;5025692;23;20304;-80
2023/07/14 12:18:18;;;;;;;0.20;0.10;;;;;;;;;;5003105;28;20502;-81
2023/07/14 12:20:44;;;;;;;0.20;0.10;;;;;;;;;;5016007;28;20042;-83
2023/07/14 12:23:12;;;;;;;0.28;0.17;;;;;;;;;;5002708;28;20149;-81
2023/07/14 12:25:41;;;;;;;0.30;0.10;;;;;;;;;;5011639;28;20041;-80
2023/07/14 12:28:20;;;;;;;0.45;0.25;;;;;;;;;;4999056;28;20045;-77
2023/07/14 12:30:49;;;;;;;0.20;0.20;;;;;;;;;;5001900;28;20030;-82
2023/07/14 12:33:17;;;;;;;0.20;0.10;;;;;;;;;;5000336;28;20245;-80
2023/07/14 12:35:43;;;;;;;0.20;0.10;;;;;;;;;;5006321;28;20710;-81
2023/07/14 12:38:12;;;;;;;0.20;0.17;;;;;;;;;;5034625;28;20025;-80
2023/07/14 12:40:38;;;;;;;0.22;0.22;;;;;;;;;;5007622;28;20548;-80
2023/07/14 12:43:17;;;;;;;0.20;0.10;;;;;;;;;;5002606;28;20033;-81
2023/07/14 12:45:43;;;;;;;0.20;0.10;;;;;;;;;;5009518;28;20418;-82
2023/07/14 12:48:09;;;;;;;0.20;0.10;;;;;;;;;;5011870;28;20408;-79
2023/07/14 12:50:40;;;;;;;0.20;0.20;;;;;;;;;;5013929;28;20037;-81
2023/07/14 12:53:10;;;;;;;0.20;0.10;;;;;;;;;;5018441;28;20042;-80
2023/07/14 12:55:37;;;;;;;0.20;0.10;;;;;;;;;;5013571;28;20050;-79
2023/07/14 12:58:07;;;;;;;0.82;0.25;;;;;;;;;;5012548;28;20045;-77
2023/07/14 13:00:33;;;;;;;0.25;0.20;;;;;;;;;;5003747;28;20066;-81
2023/07/14 13:02:59;;;;;;;0.93;0.40;;;;;;;;;;5006441;28;20041;-82
2023/07/14 13:05:32;;;;;;;0.30;0.15;;;;;;;;;;5018523;28;20049;-81
2023/07/14 13:07:58;;;;;;;0.70;0.70;;;;;;;;;;5005899;28;20046;-80
2023/07/14 13:10:39;;;;;;;0.20;0.10;;;;;;;;;;5014255;28;20033;-79
2023/07/14 13:13:06;;;;;;;0.20;0.10;;;;;;;;;;5001334;28;20251;-79
2023/07/14 13:15:34;;;;;;;0.30;0.20;;;;;;;;;;4997115;28;20045;-80
2023/07/14 13:18:08;;;;;;;0.20;0.10;;;;;;;;;;5004191;28;20108;-77
2023/07/14 13:20:41;;;;;;;0.20;0.10;;;;;;;;;;5003956;28;20046;-80
2023/07/14 13:23:19;;;;;;;0.20;0.10;;;;;;;;;;5020535;28;20033;-79
2023/07/14 13:26:03;;;;;;;0.20;0.10;;;;;;;;;;5016511;28;20042;-77
2023/07/14 13:28:37;;;;;;;0.52;0.35;;;;;;;;;;5012427;28;20046;-78
2023/07/14 13:31:11;;;;;;;0.20;0.20;;;;;;;;;;5013681;28;20050;-79
2023/07/14 13:33:37;;;;;;;0.20;0.10;;;;;;;;;;4998900;28;20034;-76
2023/07/14 13:36:05;;;;;;;0.20;0.20;;;;;;;;;;5012368;28;20045;-79
2023/07/14 13:38:31;;;;;;;0.40;0.30;;;;;;;;;;5010932;28;20052;-78
2023/07/14 13:41:08;;;;;;;0.20;0.10;;;;;;;;;;5005286;28;20045;-79
2023/07/14 13:43:34;;;;;;;0.32;0.10;;;;;;;;;;4997662;28;20053;-79
2023/07/14 13:46:15;;;;;;;0.20;0.10;;;;;;;;;;4996797;28;20100;-80
2023/07/14 13:48:42;;;;;;;0.20;0.10;;;;;;;;;;4990498;28;20682;-78
2023/07/14 13:51:22;;;;;;;0.20;0.10;;;;;;;;;;4988903;28;20087;-80
2023/07/14 13:53:49;;;;;;;1.48;0.55;;;;;;;;;;5008253;28;20537;-79
2023/07/14 13:56:17;;;;;;;0.20;0.20;;;;;;;;;;5011205;28;20103;-79
2023/07/14 13:58:44;;;;;;;0.20;0.10;;;;;;;;;;5019204;28;20073;-78
2023/07/14 14:01:18;;;;;;;0.22;0.22;;;;;;;;;;4996945;28;20041;-79
2023/07/14 14:03:44;;;;;;;0.20;0.10;;;;;;;;;;5018331;28;20042;-80
2023/07/14 14:06:11;;;;;;;0.20;0.10;;;;;;;;;;5000475;28;20578;-79
2023/07/14 14:08:37;;;;;;;0.30;0.20;;;;;;;;;;5013529;28;20507;-78
2023/07/14 14:11:03;;;;;;;0.20;0.10;;;;;;;;;;5013928;28;20069;-78
2023/07/14 14:13:29;;;;;;;0.20;0.10;;;;;;;;;;5011697;28;20663;-80
2023/07/14 14:15:55;;;;;;;0.20;0.08;;;;;;;;;;4998707;28;20048;-79
2023/07/14 14:18:28;;;;;;;0.20;0.10;;;;;;;;;;5002133;28;20445;-79
2023/07/14 14:20:55;;;;;;;0.20;0.10;;;;;;;;;;5003923;28;20383;-79
2023/07/14 14:23:22;;;;;;;0.20;0.10;;;;;;;;;;5019779;28;20116;-79
2023/07/14 14:25:49;;;;;;;0.20;0.10;;;;;;;;;;5014546;28;20453;-78
2023/07/14 14:28:16;;;;;;;0.20;0.20;;;;;;;;;;4988518;28;20103;-80
2023/07/14 14:30:43;;;;;;;0.20;0.17;;;;;;;;;;5005846;28;20494;-80
2023/07/14 14:33:12;;;;;;;0.20;0.10;;;;;;;;;;5005198;28;20052;-78
2023/07/14 14:35:38;;;;;;;0.28;0.28;;;;;;;;;;4996808;28;20044;-80
2023/07/14 14:38:12;;;;;;;0.20;0.10;;;;;;;;;;5013584;28;20040;-80
2023/07/14 14:40:38;;;;;;;0.20;0.15;;;;;;;;;;5012913;28;20030;-80
2023/07/14 14:43:13;;;;;;;0.20;0.10;;;;;;;;;;4996316;28;20034;-79
2023/07/14 14:45:40;;;;;;;0.50;0.20;;;;;;;;;;4995662;28;20066;-78
2023/07/14 14:48:25;;;;;;;0.20;0.10;;;;;;;;;;5023872;28;20084;-81
2023/07/14 14:50:52;;;;;;;0.20;0.10;;;;;;;;;;5009683;28;20034;-80
2023/07/14 14:53:19;;;;;;;0.20;0.20;;;;;;;;;;5009862;28;20510;-79
2023/07/14 14:55:47;;;;;;;0.20;0.10;;;;;;;;;;5010883;28;20121;-79
2023/07/14 14:58:20;;;;;;;0.20;0.10;;;;;;;;;;5014260;28;20405;-82
2023/07/14 15:00:51;;;;;;;0.20;0.10;;;;;;;;;;4998608;28;20033;-80
2023/07/14 15:03:17;;;;;;;0.20;0.10;;;;;;;;;;5013337;28;20049;-80
2023/07/14 15:05:43;;;;;;;0.20;0.10;;;;;;;;;;4999559;28;20037;-81
2023/07/14 15:08:10;;;;;;;0.20;0.10;;;;;;;;;;4999176;28;20495;-79